createdAt,value
2022-08-28T00:00:00.126Z,70.1
2022-08-28T00:05:00.425Z,70.2
2022-08-28T00:10:00.255Z,70.2
2022-08-28T00:15:00.319Z,70.1
2022-08-28T00:20:00.122Z,70.6
2022-08-28T00:25:00.377Z,70.7
2022-08-28T00:30:00.923Z,70.8
2022-08-28T00:35:00.142Z,69.4
2022-08-28T00:40:00.510Z,70.1
2022-08-28T00:45:00.438Z,71.7
2022-08-28T00:50:00.170Z,71
2022-08-28T00:55:00.234Z,71.4
2022-08-28T01:00:00.125Z,70.8
2022-08-28T01:05:00.285Z,70.7
2022-08-28T01:10:00.726Z,72.1
2022-08-28T01:15:00.413Z,71.4
2022-08-28T01:20:00.179Z,71.7
2022-08-28T01:25:00.201Z,72
2022-08-28T01:30:00.323Z,71.5
2022-08-28T01:35:00.221Z,72
2022-08-28T01:40:00.319Z,72.1
2022-08-28T01:45:00.008Z,71.5
2022-08-28T01:50:00.152Z,71.5
2022-08-28T01:55:00.343Z,72.7
2022-08-28T02:00:00.504Z,72
2022-08-28T02:05:00.339Z,71.7
2022-08-28T02:10:00.152Z,72.3
2022-08-28T02:15:00.363Z,71.9
2022-08-28T02:20:00.281Z,72
2022-08-28T02:25:01.152Z,72.3
2022-08-28T02:30:00.349Z,72.6
2022-08-28T02:35:00.000Z,72.7
2022-08-28T02:40:00.242Z,71.5
2022-08-28T02:45:00.091Z,70.8
2022-08-28T02:50:00.300Z,70.7
2022-08-28T02:55:00.524Z,70.8
2022-08-28T03:00:00.676Z,71.1
2022-08-28T03:05:00.476Z,70.9
2022-08-28T03:10:00.285Z,71.3
2022-08-28T03:15:00.167Z,70.9
2022-08-28T03:20:00.150Z,70.8
2022-08-28T03:25:00.352Z,71
2022-08-28T03:30:00.276Z,71.1
2022-08-28T03:35:00.461Z,71.1
2022-08-28T03:40:00.399Z,70.9
2022-08-28T03:45:00.082Z,71
2022-08-28T03:50:00.241Z,71
2022-08-28T03:55:00.084Z,71.1
2022-08-28T04:00:00.024Z,71.5
2022-08-28T04:05:00.448Z,71.6
2022-08-28T04:10:00.307Z,71.8
2022-08-28T04:14:59.986Z,71.8
2022-08-28T04:19:59.998Z,71.8
2022-08-28T04:25:00.139Z,71.8
2022-08-28T04:30:00.282Z,71.8
2022-08-28T04:35:00.045Z,72
2022-08-28T04:40:00.043Z,71.9
2022-08-28T04:44:59.993Z,72.4
2022-08-28T04:49:59.953Z,72.6
2022-08-28T04:55:00.494Z,72.7
2022-08-28T05:00:00.466Z,72.4
2022-08-28T05:05:00.103Z,72.5
2022-08-28T05:10:00.043Z,72.9
2022-08-28T05:14:59.944Z,73
2022-08-28T05:20:00.045Z,73.3
2022-08-28T05:25:00.058Z,73.7
2022-08-28T05:30:01.988Z,74.3
2022-08-28T05:35:00.342Z,75.2
2022-08-28T05:40:00.300Z,76
2022-08-28T05:45:00.159Z,77.1
2022-08-28T05:50:00.243Z,76.1
2022-08-28T05:55:00.188Z,75.2
2022-08-28T06:00:00.171Z,74.7
2022-08-28T06:05:00.086Z,74.1
2022-08-28T06:10:00.399Z,72.9
2022-08-28T06:14:59.954Z,72.3
2022-08-28T06:20:00.117Z,70.6
2022-08-28T06:25:00.156Z,70.1
2022-08-28T06:30:00.328Z,68.9
2022-08-28T06:34:59.979Z,67.8
2022-08-28T06:39:59.929Z,66.6
2022-08-28T06:45:00.305Z,66
2022-08-28T06:50:00.153Z,65.7
2022-08-28T06:54:59.878Z,65
2022-08-28T07:00:00.313Z,64.3
2022-08-28T07:04:59.991Z,64
2022-08-28T07:10:00.178Z,64.4
2022-08-28T07:15:00.015Z,64.1
2022-08-28T07:19:59.883Z,63.5
2022-08-28T07:25:00.203Z,63.6
2022-08-28T07:30:00.041Z,63.7
2022-08-28T07:35:00.191Z,62.9
2022-08-28T07:40:00.320Z,62.5
2022-08-28T07:44:59.865Z,62.8
2022-08-28T07:50:00.201Z,62.3
2022-08-28T07:54:59.953Z,62.1
2022-08-28T08:00:00.490Z,61.6
2022-08-28T08:04:59.913Z,60.9
2022-08-28T08:09:59.901Z,60.2
2022-08-28T08:15:00.193Z,59.2
2022-08-28T08:20:00.040Z,60.2
2022-08-28T08:25:00.044Z,59.5
2022-08-28T08:30:00.354Z,59
2022-08-28T08:35:00.338Z,58.7
2022-08-28T08:40:00.446Z,59.2
2022-08-28T08:44:59.941Z,57.3
2022-08-28T08:50:01.211Z,57.6
2022-08-28T08:55:04.259Z,56.5
2022-08-28T08:59:59.931Z,56.8
2022-08-28T09:04:59.721Z,54.5
2022-08-28T09:10:00.134Z,53.9
2022-08-28T09:14:59.993Z,53.6
2022-08-28T09:19:59.853Z,52.7
2022-08-28T09:25:00.021Z,51.7
2022-08-28T09:29:59.780Z,51.8
2022-08-28T09:34:59.895Z,51.5
2022-08-28T09:39:59.999Z,52.8
2022-08-28T09:45:09.064Z,52.4
2022-08-28T09:50:00.025Z,52.9
2022-08-28T09:55:00.129Z,52.5
2022-08-28T10:00:00.097Z,51.3
2022-08-28T10:05:01.688Z,50.5
2022-08-28T10:09:59.901Z,50.7
2022-08-28T10:14:59.967Z,50.9
2022-08-28T10:19:59.782Z,49.6
2022-08-28T10:25:05.801Z,49.9
2022-08-28T10:30:05.932Z,48
2022-08-28T10:35:02.545Z,49.6
2022-08-28T10:40:04.716Z,48.9
2022-08-28T10:44:59.997Z,46.5
2022-08-28T10:49:59.879Z,47.2
2022-08-28T10:54:59.909Z,46.2
2022-08-28T11:00:06.680Z,47
2022-08-28T11:05:00.356Z,47
2022-08-28T11:09:59.804Z,47
2022-08-28T11:15:21.084Z,47
2022-08-28T11:20:06.130Z,47
2022-08-28T11:25:04.358Z,47
2022-08-28T11:30:29.423Z,47
2022-08-28T11:34:59.650Z,47
2022-08-28T11:40:12.459Z,47
2022-08-28T11:44:59.798Z,47
2022-08-28T11:50:02.951Z,47
2022-08-28T11:54:59.953Z,47
2022-08-28T12:00:03.971Z,47
2022-08-28T12:05:00.135Z,47
2022-08-28T12:10:02.997Z,47
2022-08-28T12:14:59.893Z,47
2022-08-28T12:20:03.940Z,47
2022-08-28T12:25:01.579Z,47
2022-08-28T12:30:00.952Z,47
2022-08-28T12:34:59.820Z,47
2022-08-28T12:40:06.286Z,47
2022-08-28T12:44:59.971Z,47
2022-08-28T12:50:15.237Z,47
2022-08-28T12:55:00.023Z,47
2022-08-28T13:00:08.111Z,47
2022-08-28T13:04:59.698Z,47
2022-08-28T13:10:03.002Z,47
2022-08-28T13:14:59.669Z,47
2022-08-28T13:20:00.676Z,47
2022-08-28T13:24:59.827Z,47
2022-08-28T13:30:03.235Z,47
2022-08-28T13:34:59.756Z,47
2022-08-28T13:39:59.823Z,47
2022-08-28T13:44:59.811Z,47
2022-08-28T13:49:59.875Z,47
2022-08-28T13:54:59.667Z,47
2022-08-28T14:00:00.184Z,47
2022-08-28T14:04:59.783Z,47
2022-08-28T14:09:59.897Z,47
2022-08-28T14:14:59.551Z,47
2022-08-28T14:19:59.853Z,47
2022-08-28T14:24:59.974Z,47
2022-08-28T14:30:00.231Z,47
2022-08-28T14:34:59.797Z,47
2022-08-28T14:40:00.024Z,47
2022-08-28T14:44:59.835Z,47
2022-08-28T14:49:59.851Z,34.7
2022-08-28T14:54:59.736Z,34.9
2022-08-28T14:59:59.796Z,34.9
2022-08-28T15:04:59.751Z,34.9
2022-08-28T15:09:59.805Z,34.9
2022-08-28T15:14:59.755Z,34.9
2022-08-28T15:20:00.083Z,36.4
2022-08-28T15:25:00.033Z,36.4
2022-08-28T15:29:59.639Z,37.9
2022-08-28T15:34:59.511Z,37.9
2022-08-28T15:39:59.889Z,36.4
2022-08-28T15:44:59.543Z,36.2
2022-08-28T15:49:59.619Z,36.2
2022-08-28T15:54:59.871Z,36.2
2022-08-28T15:59:59.810Z,36.2
2022-08-28T16:04:59.673Z,39
2022-08-28T16:09:59.768Z,39.6
2022-08-28T16:14:59.645Z,39.7
2022-08-28T16:19:59.777Z,40.6
2022-08-28T16:24:59.565Z,40.7
2022-08-28T16:29:59.850Z,40.8
2022-08-28T16:34:59.765Z,42.1
2022-08-28T16:39:59.909Z,44.2
2022-08-28T16:44:59.881Z,44.6
2022-08-28T16:49:59.644Z,44.7
2022-08-28T16:54:59.931Z,45.9
2022-08-28T16:59:59.940Z,46.2
2022-08-28T17:04:59.817Z,45.9
2022-08-28T17:09:59.811Z,45.9
2022-08-28T17:14:59.666Z,45.9
2022-08-28T17:19:59.473Z,45.9
2022-08-28T17:24:59.858Z,45.9
2022-08-28T17:29:59.734Z,46.2
2022-08-28T17:34:59.743Z,48.2
2022-08-28T17:39:59.829Z,48.2
2022-08-28T17:44:59.563Z,48.2
2022-08-28T17:50:00.323Z,48.2
2022-08-28T17:54:59.945Z,48.2
2022-08-28T17:59:59.641Z,48.2
2022-08-28T18:04:59.450Z,48.2
2022-08-28T18:09:59.708Z,48.2
2022-08-28T18:14:59.597Z,48.2
2022-08-28T18:19:59.854Z,48.2
2022-08-28T18:24:59.511Z,48.2
2022-08-28T18:29:59.429Z,48.2
2022-08-28T18:34:59.952Z,48.2
2022-08-28T18:39:59.606Z,48.2
2022-08-28T18:44:59.390Z,48.2
2022-08-28T18:49:59.399Z,48.2
2022-08-28T18:55:00.717Z,48.2
2022-08-28T18:59:59.610Z,48.2
2022-08-28T19:04:59.511Z,48.2
2022-08-28T19:09:59.669Z,48.2
2022-08-28T19:14:59.398Z,48.2
2022-08-28T19:20:00.987Z,59.5
2022-08-28T19:24:59.698Z,60.2
2022-08-28T19:29:59.373Z,60.6
2022-08-28T19:34:59.827Z,61.9
2022-08-28T19:39:59.551Z,62.6
2022-08-28T19:44:59.963Z,62.6
2022-08-28T19:49:59.623Z,63.3
2022-08-28T19:54:59.608Z,63
2022-08-28T19:59:59.481Z,64.2
2022-08-28T20:04:59.537Z,64.5
2022-08-28T20:09:59.566Z,64.9
2022-08-28T20:15:03.293Z,65.1
2022-08-28T20:20:03.160Z,65.2
2022-08-28T20:24:59.479Z,65.2
2022-08-28T20:29:59.679Z,65.2
2022-08-28T20:34:59.314Z,65.2
2022-08-28T20:39:59.847Z,65.2
2022-08-28T20:44:59.425Z,65.2
2022-08-28T20:49:59.601Z,65.2
2022-08-28T20:54:59.811Z,65.2
2022-08-28T21:00:03.470Z,65.2
2022-08-28T21:04:59.803Z,65.2
2022-08-28T21:10:05.129Z,65.2
2022-08-28T21:14:59.322Z,65.2
2022-08-28T21:19:59.294Z,65.2
2022-08-28T21:24:59.765Z,65.2
2022-08-28T21:29:59.426Z,65.2
2022-08-28T21:34:59.452Z,65.2
2022-08-28T21:39:59.414Z,65.2
2022-08-28T21:44:59.866Z,65.2
2022-08-28T21:49:59.766Z,65.2
2022-08-28T21:54:59.618Z,65.2
2022-08-28T21:59:59.474Z,65.2
2022-08-28T22:04:59.377Z,65.2
2022-08-28T22:09:59.515Z,65.2
2022-08-28T22:14:59.490Z,65.2
2022-08-28T22:19:59.538Z,65.2
2022-08-28T22:24:59.839Z,65.2
2022-08-28T22:29:59.462Z,65.2
2022-08-28T22:34:59.543Z,65.2
2022-08-28T22:39:59.613Z,65.2
2022-08-28T22:44:59.779Z,65.2
2022-08-28T22:49:59.496Z,65.2
2022-08-28T22:54:59.650Z,65.2
2022-08-28T22:59:59.581Z,65.2
2022-08-28T23:04:59.394Z,65.2
2022-08-28T23:09:59.278Z,65.2
2022-08-28T23:14:59.480Z,65.2
2022-08-28T23:19:59.612Z,65.2
2022-08-28T23:24:59.676Z,65.2
2022-08-28T23:29:59.677Z,65.2
2022-08-28T23:34:59.749Z,65.2
2022-08-28T23:39:59.527Z,65.2
2022-08-28T23:44:59.545Z,65.2
2022-08-28T23:49:59.299Z,65.2
2022-08-28T23:54:59.480Z,65.2
2022-08-28T23:59:59.228Z,65.2
